Time;durP1;ratioP1;P1;durP2;ratioP2;P2;SDS_P1;SDS_P2;PMS_P1;PMS_P2;Temp;Humidity;BMP_temperature;BMP_pressure;BME280_temperature;BME280_humidity;BME280_pressure;Samples;Min_cycle;Max_cycle;Signal;HPM_P1;HPM_P2
2023/09/24 00:02:03;;;;;;;1.00;0.90;;;;;;;10.79;100.00;101043.25;4978991;28;20566;-80
2023/09/24 00:04:29;;;;;;;1.43;1.20;;;;;;;10.77;100.00;101043.22;4966050;28;20187;-79
2023/09/24 00:06:54;;;;;;;2.07;1.30;;;;;;;10.77;100.00;101044.97;4971460;28;20333;-81
2023/09/24 00:09:20;;;;;;;1.13;1.03;;;;;;;10.74;100.00;101057.88;4971249;28;20248;-81
2023/09/24 00:11:45;;;;;;;1.93;1.40;;;;;;;10.67;100.00;101049.25;4971592;28;20193;-80
2023/09/24 00:14:11;;;;;;;1.63;1.30;;;;;;;10.63;100.00;101063.91;4966770;28;20272;-81
2023/09/24 00:16:37;;;;;;;1.40;1.30;;;;;;;10.59;100.00;101056.97;4965696;28;20253;-81
2023/09/24 00:19:03;;;;;;;1.20;1.10;;;;;;;10.54;100.00;101060.41;4963258;28;20202;-80
2023/09/24 00:21:28;;;;;;;1.67;1.37;;;;;;;10.53;100.00;101059.53;4967670;28;20189;-81
2023/09/24 00:23:54;;;;;;;1.53;1.30;;;;;;;10.49;100.00;101060.41;4968266;28;20200;-80
2023/09/24 00:26:19;;;;;;;2.10;1.53;;;;;;;10.46;100.00;101070.75;4972348;28;20226;-82
2023/09/24 00:28:45;;;;;;;1.93;1.07;;;;;;;10.43;100.00;101068.13;4965966;28;20330;-81
2023/09/24 00:31:10;;;;;;;2.87;1.10;;;;;;;10.37;100.00;101069.78;4965894;28;20190;-81
2023/09/24 00:33:35;;;;;;;1.60;1.30;;;;;;;10.34;100.00;101068.94;4959546;28;20193;-81
2023/09/24 00:36:01;;;;;;;1.73;1.10;;;;;;;10.30;100.00;101073.22;4967272;28;20190;-81
2023/09/24 00:38:26;;;;;;;1.37;1.03;;;;;;;10.28;100.00;101079.25;4967347;28;20241;-82
2023/09/24 00:40:51;;;;;;;1.03;0.80;;;;;;;10.26;100.00;101087.00;4960965;28;20210;-80
2023/09/24 00:43:31;;;;;;;1.33;1.00;;;;;;;10.22;100.00;101073.19;4969399;28;20218;-81
2023/09/24 00:45:59;;;;;;;0.97;0.93;;;;;;;10.21;100.00;101086.97;4969988;28;20213;-80
2023/09/24 00:48:28;;;;;;;3.53;1.10;;;;;;;10.20;100.00;101087.84;4967977;28;20222;-79
2023/09/24 00:50:58;;;;;;;1.40;1.00;;;;;;;10.16;100.00;101082.63;4968658;28;20197;-83
2023/09/24 00:53:26;;;;;;;1.47;1.20;;;;;;;10.14;100.00;101087.78;4968158;28;20570;-79
2023/09/24 00:55:53;;;;;;;1.00;0.90;;;;;;;10.11;100.00;101086.91;4966592;28;20852;-81
2023/09/24 00:58:18;;;;;;;1.37;0.97;;;;;;;10.07;100.00;101088.63;4967917;28;20213;-82
2023/09/24 01:00:46;;;;;;;1.20;1.07;;;;;;;10.04;100.00;101089.47;4963664;28;20675;-82
2023/09/24 01:03:12;;;;;;;1.30;1.20;;;;;;;10.01;100.00;101088.56;4989138;28;20193;-82
2023/09/24 01:05:37;;;;;;;1.87;1.10;;;;;;;9.98;100.00;101099.78;4976472;28;20190;-81
2023/09/24 01:08:04;;;;;;;1.67;1.10;;;;;;;9.95;100.00;101094.56;4967341;28;20258;-81
2023/09/24 01:10:29;;;;;;;2.10;0.87;;;;;;;9.93;100.00;101103.19;4980866;28;20621;-81
2023/09/24 01:13:01;;;;;;;1.13;0.87;;;;;;;9.91;100.00;101097.97;4968720;28;20217;-82
2023/09/24 01:15:27;;;;;;;1.00;1.00;;;;;;;9.89;100.00;101094.56;4971274;28;20198;-82
2023/09/24 01:17:53;;;;;;;1.80;1.13;;;;;;;9.90;100.00;101091.13;4967871;28;20206;-81
2023/09/24 01:20:22;;;;;;;1.67;1.30;;;;;;;9.87;100.00;101088.50;4967088;28;20249;-81
2023/09/24 01:22:50;;;;;;;1.47;1.10;;;;;;;9.87;100.00;101093.66;4967264;28;20179;-80
2023/09/24 01:25:18;;;;;;;1.50;1.10;;;;;;;9.86;100.00;101092.78;4967635;28;20175;-82
2023/09/24 01:27:43;;;;;;;1.80;1.27;;;;;;;9.84;100.00;101089.31;4971269;28;20270;-81
2023/09/24 01:30:09;;;;;;;1.53;0.93;;;;;;;9.80;100.00;101087.59;4969728;28;20187;-82
2023/09/24 01:32:35;;;;;;;1.73;1.10;;;;;;;9.79;100.00;101087.56;4969435;28;20233;-83
2023/09/24 01:35:06;;;;;;;2.90;1.23;;;;;;;9.75;100.00;101089.28;4972858;28;20222;-82
2023/09/24 01:37:33;;;;;;;1.23;1.10;;;;;;;9.72;100.00;101084.06;4971156;28;20213;-81
2023/09/24 01:40:10;;;;;;;1.30;1.20;;;;;;;9.69;100.00;101079.75;4969352;28;20190;-81
2023/09/24 01:42:36;;;;;;;3.53;1.67;;;;;;;9.68;100.00;101074.59;4967843;28;21079;-80
2023/09/24 01:45:01;;;;;;;1.10;1.00;;;;;;;9.67;100.00;101083.19;4970338;28;20276;-81
2023/09/24 01:47:28;;;;;;;0.97;0.93;;;;;;;9.67;100.00;101084.03;4965471;28;20333;-81
2023/09/24 01:49:56;;;;;;;1.20;1.10;;;;;;;9.65;100.00;101084.91;4962486;28;20584;-80
2023/09/24 01:52:22;;;;;;;1.10;1.00;;;;;;;9.65;100.00;101090.06;4964397;28;20245;-81
2023/09/24 01:54:47;;;;;;;1.20;1.10;;;;;;;9.64;100.00;101088.31;4967047;28;20198;-82
2023/09/24 01:57:12;;;;;;;1.47;1.20;;;;;;;9.62;100.00;101101.22;4965340;28;20333;-81
2023/09/24 01:59:38;;;;;;;2.80;1.27;;;;;;;9.62;100.00;101098.63;4967342;28;20194;-81
2023/09/24 02:02:03;;;;;;;1.00;0.90;;;;;;;9.62;100.00;101106.38;4962962;28;20206;-81
2023/09/24 02:04:28;;;;;;;1.33;0.93;;;;;;;9.62;100.00;101103.81;4959636;28;20261;-81
2023/09/24 02:06:54;;;;;;;1.67;1.20;;;;;;;9.64;100.00;101096.94;4957904;28;20226;-80
2023/09/24 02:09:19;;;;;;;1.10;1.00;;;;;;;9.66;100.00;101094.38;4965458;28;20186;-80
2023/09/24 02:11:45;;;;;;;1.20;1.10;;;;;;;9.65;100.00;101095.22;4961784;28;20175;-80
2023/09/24 02:14:11;;;;;;;1.00;0.90;;;;;;;9.67;100.00;101099.53;4962761;28;20565;-82
2023/09/24 02:16:38;;;;;;;1.03;0.93;;;;;;;9.69;100.00;101104.72;4952703;28;20218;-82
2023/09/24 02:19:04;;;;;;;2.70;1.40;;;;;;;9.72;100.00;101109.91;4961709;28;20190;-81
2023/09/24 02:21:30;;;;;;;1.20;0.90;;;;;;;9.76;100.00;101109.09;4967065;28;20197;-80
2023/09/24 02:23:55;;;;;;;1.10;1.00;;;;;;;9.79;100.00;101105.66;4970379;28;20292;-81
2023/09/24 02:26:21;;;;;;;1.43;1.13;;;;;;;9.80;100.00;101108.28;4966941;28;20269;-79
2023/09/24 02:28:46;;;;;;;1.10;1.00;;;;;;;9.81;100.00;101109.13;4971429;28;20204;-81
2023/09/24 02:31:14;;;;;;;1.00;0.80;;;;;;;9.82;100.00;101113.44;4971650;28;20916;-82
2023/09/24 02:33:40;;;;;;;1.50;1.37;;;;;;;9.80;100.00;101112.56;4964658;28;20198;-81
2023/09/24 02:36:08;;;;;;;1.30;1.10;;;;;;;9.79;100.00;101109.13;4970052;28;20313;-80
2023/09/24 02:38:34;;;;;;;1.10;0.90;;;;;;;9.78;100.00;101115.16;4964646;28;20229;-80
2023/09/24 02:40:59;;;;;;;1.30;1.00;;;;;;;9.75;100.00;101115.13;4965311;28;20186;-82
2023/09/24 02:43:24;;;;;;;1.83;1.10;;;;;;;9.72;100.00;101121.13;4968282;28;20209;-80
2023/09/24 02:45:50;;;;;;;1.53;1.00;;;;;;;9.70;100.00;101115.09;4961820;28;20557;-82
2023/09/24 02:48:18;;;;;;;1.67;1.07;;;;;;;9.67;100.00;101117.63;4960616;28;20205;-81
2023/09/24 02:50:44;;;;;;;1.30;1.00;;;;;;;9.64;100.00;101121.94;4970838;28;20235;-81
2023/09/24 02:53:09;;;;;;;1.40;1.03;;;;;;;9.56;100.00;101120.13;4969722;28;20690;-80
2023/09/24 02:55:36;;;;;;;1.13;0.90;;;;;;;9.51;100.00;101119.25;4973251;28;20206;-80
2023/09/24 02:58:03;;;;;;;1.57;1.10;;;;;;;9.48;100.00;101115.75;4972459;28;20221;-80
2023/09/24 03:00:41;;;;;;;1.63;1.20;;;;;;;9.47;100.00;101120.06;4983678;28;20197;-82
2023/09/24 03:03:07;;;;;;;1.20;1.07;;;;;;;9.42;100.00;101124.31;4968172;28;20189;-81
2023/09/24 03:05:33;;;;;;;1.17;1.00;;;;;;;9.39;100.00;101119.09;4970833;28;20268;-81
2023/09/24 03:08:00;;;;;;;1.77;1.20;;;;;;;9.33;100.00;101122.50;4970501;28;20269;-80
2023/09/24 03:10:26;;;;;;;1.40;1.20;;;;;;;9.29;100.00;101123.34;4969320;28;20186;-82
2023/09/24 03:12:52;;;;;;;1.27;1.17;;;;;;;9.26;100.00;101121.56;4966580;28;20198;-80
2023/09/24 03:15:18;;;;;;;1.23;1.00;;;;;;;9.25;100.00;101124.16;4966345;28;20212;-82
2023/09/24 03:17:46;;;;;;;1.37;1.27;;;;;;;9.19;100.00;101122.38;4963689;28;20212;-80
2023/09/24 03:20:15;;;;;;;1.60;1.20;;;;;;;9.17;100.00;101126.66;4970144;28;20196;-81
2023/09/24 03:22:48;;;;;;;2.03;1.20;;;;;;;9.15;100.00;101126.63;4965045;28;20224;-82
2023/09/24 03:25:25;;;;;;;2.63;1.27;;;;;;;9.11;100.00;101136.91;4972116;28;20177;-80
2023/09/24 03:27:53;;;;;;;1.50;1.20;;;;;;;9.08;100.00;101140.34;4957993;28;20222;-81
2023/09/24 03:30:19;;;;;;;2.03;1.13;;;;;;;9.07;100.00;101141.19;4956814;28;20248;-81
2023/09/24 03:32:46;;;;;;;1.20;1.10;;;;;;;9.07;100.00;101145.50;4964652;28;20190;-80
2023/09/24 03:35:12;;;;;;;1.27;1.17;;;;;;;9.03;100.00;101147.16;4975689;28;20241;-81
2023/09/24 03:37:40;;;;;;;1.80;1.40;;;;;;;9.00;100.00;101154.88;4965530;28;20286;-81
2023/09/24 03:40:08;;;;;;;1.43;1.30;;;;;;;8.97;100.00;101149.69;4962662;28;20186;-83
2023/09/24 03:42:35;;;;;;;2.13;1.50;;;;;;;8.91;100.00;101154.78;4967141;28;20284;-81
2023/09/24 03:45:01;;;;;;;1.83;1.20;;;;;;;8.90;100.00;101153.91;4966212;28;20187;-80
2023/09/24 03:47:26;;;;;;;1.80;1.17;;;;;;;8.89;100.00;101156.47;4964860;28;20252;-81
2023/09/24 03:49:51;;;;;;;1.23;1.13;;;;;;;8.88;100.00;101159.88;4965549;28;20192;-83
2023/09/24 03:52:17;;;;;;;1.47;1.27;;;;;;;8.87;100.00;101151.28;4967676;28;20275;-80
2023/09/24 03:54:42;;;;;;;1.30;1.20;;;;;;;8.87;100.00;101155.56;4961698;28;20208;-79
2023/09/24 03:57:07;;;;;;;0.97;0.93;;;;;;;8.88;100.00;101157.31;4958649;28;20306;-81
2023/09/24 03:59:36;;;;;;;1.20;1.10;;;;;;;8.88;100.00;101160.78;4961926;28;20191;-80
2023/09/24 04:02:06;;;;;;;1.40;1.30;;;;;;;8.91;100.00;101160.81;4967881;28;20280;-80
2023/09/24 04:04:32;;;;;;;1.43;1.33;;;;;;;8.91;100.00;101165.97;4972601;28;20197;-80
2023/09/24 04:06:57;;;;;;;1.50;1.20;;;;;;;8.90;100.00;101164.25;4964140;28;20210;-80
2023/09/24 04:09:23;;;;;;;2.77;1.43;;;;;;;8.88;100.00;101168.50;4980528;28;20183;-79
2023/09/24 04:11:48;;;;;;;1.53;1.43;;;;;;;8.87;100.00;101173.63;4962293;28;20782;-81
2023/09/24 04:14:14;;;;;;;3.70;2.23;;;;;;;8.84;100.00;101185.69;4966442;28;20198;-81
2023/09/24 04:16:41;;;;;;;2.90;2.00;;;;;;;8.82;100.00;101177.06;4969894;28;20222;-81
2023/09/24 04:19:07;;;;;;;1.67;1.57;;;;;;;8.80;100.00;101177.84;4971584;28;20191;-80
2023/09/24 04:21:32;;;;;;;2.17;1.73;;;;;;;8.80;100.00;101181.31;4965464;28;20261;-81
2023/09/24 04:23:58;;;;;;;2.07;1.50;;;;;;;8.80;100.00;101176.16;4971112;28;20185;-81
2023/09/24 04:26:23;;;;;;;1.90;1.60;;;;;;;8.79;100.00;101181.28;4960030;28;20281;-80
2023/09/24 04:28:50;;;;;;;1.30;1.20;;;;;;;8.78;100.00;101187.28;4964549;28;20248;-80
2023/09/24 04:31:16;;;;;;;1.43;1.17;;;;;;;8.79;100.00;101194.19;4967630;28;20620;-81
2023/09/24 04:33:42;;;;;;;2.10;1.30;;;;;;;8.78;100.00;101193.34;4972250;28;20201;-81
2023/09/24 04:36:09;;;;;;;2.50;1.50;;;;;;;8.79;100.00;101197.66;4966101;28;20224;-80
2023/09/24 04:38:36;;;;;;;1.87;1.47;;;;;;;8.80;100.00;101207.13;4967673;28;20905;-80
2023/09/24 04:41:01;;;;;;;2.17;1.37;;;;;;;8.78;100.00;101206.25;4962551;28;22781;-80
2023/09/24 04:43:26;;;;;;;1.63;1.20;;;;;;;8.77;100.00;101217.41;4969068;28;20201;-81
2023/09/24 04:45:52;;;;;;;1.13;1.00;;;;;;;8.75;100.00;101219.09;4971021;28;20224;-80
2023/09/24 04:48:17;;;;;;;1.77;1.30;;;;;;;8.69;100.00;101225.06;4963704;28;20241;-81
2023/09/24 04:50:42;;;;;;;4.70;1.70;;;;;;;8.66;100.00;101230.16;4968873;28;20182;-78
2023/09/24 04:53:08;;;;;;;3.40;1.37;;;;;;;8.67;100.00;101233.63;4967209;28;20205;-79
2023/09/24 04:55:33;;;;;;;1.20;1.10;;;;;;;8.66;100.00;101237.06;4970591;28;20220;-78
2023/09/24 04:58:00;;;;;;;1.10;1.00;;;;;;;8.62;100.00;101230.09;4987347;28;20224;-79
2023/09/24 05:00:25;;;;;;;1.27;1.17;;;;;;;8.59;100.00;101235.22;4968504;28;20177;-78
2023/09/24 05:02:51;;;;;;;1.60;1.50;;;;;;;8.57;100.00;101244.63;4961723;28;20208;-78
2023/09/24 05:05:16;;;;;;;1.70;1.47;;;;;;;8.56;100.00;101242.91;4960050;28;20836;-77
2023/09/24 05:07:41;;;;;;;1.70;1.60;;;;;;;8.53;100.00;101244.63;4966736;28;20229;-78
2023/09/24 05:10:08;;;;;;;1.63;1.53;;;;;;;8.56;100.00;101248.06;4967236;28;20310;-78
2023/09/24 05:12:33;;;;;;;2.53;1.83;;;;;;;8.59;100.00;101240.38;4965450;28;20197;-78
2023/09/24 05:14:58;;;;;;;2.20;2.10;;;;;;;8.62;100.00;101249.00;4963079;28;20299;-77
2023/09/24 05:17:24;;;;;;;1.83;1.73;;;;;;;8.68;100.00;101251.69;4962907;28;20717;-79
2023/09/24 05:19:49;;;;;;;1.73;1.63;;;;;;;8.75;100.00;101254.38;4963949;28;20898;-79
2023/09/24 05:22:15;;;;;;;1.80;1.70;;;;;;;8.82;100.00;101254.50;4966549;28;20188;-77
2023/09/24 05:24:41;;;;;;;1.80;1.70;;;;;;;8.89;100.00;101262.31;4965120;28;20195;-78
2023/09/24 05:27:06;;;;;;;1.87;1.57;;;;;;;8.94;100.00;101252.91;4967838;28;20206;-79
2023/09/24 05:29:31;;;;;;;1.60;1.50;;;;;;;9.00;100.00;101250.38;4962581;28;20189;-78
2023/09/24 05:31:57;;;;;;;1.60;1.50;;;;;;;9.05;100.00;101273.72;4965385;28;20219;-78
2023/09/24 05:34:24;;;;;;;1.93;1.80;;;;;;;9.08;100.00;101268.56;4965653;28;20186;-78
2023/09/24 05:36:50;;;;;;;1.50;1.40;;;;;;;9.10;100.00;101275.50;4963268;28;20280;-80
2023/09/24 05:39:15;;;;;;;1.70;1.60;;;;;;;9.10;100.00;101280.66;4964923;28;20190;-79
2023/09/24 05:41:40;;;;;;;1.53;1.40;;;;;;;9.10;100.00;101282.38;4966266;28;20248;-80
2023/09/24 05:44:06;;;;;;;1.60;1.30;;;;;;;9.08;100.00;101282.38;4960373;28;20723;-82
2023/09/24 05:46:31;;;;;;;1.60;0.90;;;;;;;9.10;100.00;101287.53;4961794;28;20277;-79
2023/09/24 05:48:58;;;;;;;1.63;1.10;;;;;;;9.09;100.00;101288.38;4966315;28;20684;-78
2023/09/24 05:51:24;;;;;;;1.50;1.40;;;;;;;9.10;100.00;101291.00;4975231;28;20182;-79
2023/09/24 05:53:50;;;;;;;1.03;0.93;;;;;;;9.12;100.00;101296.19;4962058;28;20190;-78
2023/09/24 05:56:15;;;;;;;0.97;0.97;;;;;;;9.14;100.00;101297.06;4967513;28;20224;-78
2023/09/24 05:58:41;;;;;;;1.50;1.27;;;;;;;9.18;100.00;101296.28;4964057;28;20289;-79
2023/09/24 06:01:06;;;;;;;1.13;1.03;;;;;;;9.23;100.00;101292.00;4963944;28;20202;-79
2023/09/24 06:03:32;;;;;;;1.10;1.00;;;;;;;9.27;100.00;101290.34;4960708;28;20201;-79
2023/09/24 06:05:57;;;;;;;1.17;1.07;;;;;;;9.32;100.00;101290.41;4958117;28;20182;-80
2023/09/24 06:08:22;;;;;;;2.23;1.20;;;;;;;9.36;100.00;101295.63;4959908;28;20194;-78
2023/09/24 06:10:48;;;;;;;2.50;1.23;;;;;;;9.40;100.00;101301.69;4964726;28;20193;-79
2023/09/24 06:13:15;;;;;;;1.33;1.10;;;;;;;9.47;100.00;101298.34;4964529;28;20174;-80
2023/09/24 06:15:41;;;;;;;3.67;1.20;;;;;;;9.55;100.00;101294.13;4963565;28;20240;-79
2023/09/24 06:18:07;;;;;;;1.97;1.17;;;;;;;9.61;100.00;101301.94;4960097;28;20221;-79
2023/09/24 06:20:39;;;;;;;1.43;1.00;;;;;;;9.63;100.00;101301.97;4961828;28;20190;-81
2023/09/24 06:23:05;;;;;;;1.70;1.13;;;;;;;9.63;100.00;101319.19;4964646;28;20209;-80
2023/09/24 06:25:31;;;;;;;1.30;1.10;;;;;;;9.68;100.00;101317.53;4969278;28;20212;-81
2023/09/24 06:27:56;;;;;;;1.53;1.43;;;;;;;9.80;100.00;101317.69;4980648;28;20209;-81
2023/09/24 06:30:22;;;;;;;2.43;1.40;;;;;;;9.90;100.00;101316.06;4968146;28;20279;-80
2023/09/24 06:32:47;;;;;;;2.97;1.60;;;;;;;9.95;100.00;101313.50;4991096;28;20244;-81
2023/09/24 06:35:12;;;;;;;2.07;1.30;;;;;;;9.98;100.00;101319.56;4975019;28;20189;-80
2023/09/24 06:37:38;;;;;;;2.07;1.10;;;;;;;10.01;100.00;101327.38;4974126;28;20229;-80
2023/09/24 06:40:04;;;;;;;4.47;1.30;;;;;;;10.07;100.00;101326.56;4976367;28;20181;-79
2023/09/24 06:42:29;;;;;;;3.13;1.80;;;;;;;10.13;100.00;101331.81;4978787;28;20190;-80
2023/09/24 06:44:54;;;;;;;2.07;1.50;;;;;;;10.18;100.00;101324.94;4964858;28;20189;-80
2023/09/24 06:47:19;;;;;;;2.60;1.70;;;;;;;10.22;100.00;101329.28;4964507;28;20973;-80
2023/09/24 06:49:51;;;;;;;1.60;1.37;;;;;;;10.27;100.00;101318.97;4982557;28;20729;-81
2023/09/24 06:52:17;;;;;;;3.70;1.70;;;;;;;10.36;100.00;101320.78;4972621;28;20174;-81
2023/09/24 06:54:42;;;;;;;2.37;1.60;;;;;;;10.42;100.00;101328.66;4987881;28;20181;-81
2023/09/24 06:57:07;;;;;;;2.13;1.67;;;;;;;10.52;100.00;101326.97;4987975;28;20215;-80
2023/09/24 06:59:32;;;;;;;1.63;1.40;;;;;;;10.57;100.00;101327.03;4978187;28;20194;-80
2023/09/24 07:01:58;;;;;;;1.97;1.50;;;;;;;10.66;100.00;101335.72;4970177;28;20300;-80
2023/09/24 07:04:23;;;;;;;2.50;1.57;;;;;;;10.75;100.00;101336.66;4970503;28;20210;-79
2023/09/24 07:06:50;;;;;;;3.53;1.80;;;;;;;10.77;100.00;101333.22;4971262;28;20316;-79
2023/09/24 07:09:16;;;;;;;4.47;1.87;;;;;;;10.79;100.00;101325.47;4973259;28;20188;-79
2023/09/24 07:11:41;;;;;;;8.43;1.80;;;;;;;10.87;100.00;101322.94;4965982;28;20187;-81
2023/09/24 07:14:07;;;;;;;4.43;1.97;;;;;;;10.92;100.00;101321.22;4966872;28;20190;-80
2023/09/24 07:16:35;;;;;;;6.50;2.43;;;;;;;10.99;100.00;101328.19;4971570;28;20305;-80
2023/09/24 07:19:00;;;;;;;4.33;1.90;;;;;;;11.06;100.00;101323.91;4966206;28;20186;-79
2023/09/24 07:21:28;;;;;;;2.47;1.53;;;;;;;11.25;100.00;101330.94;4966587;28;20568;-80
2023/09/24 07:23:55;;;;;;;2.33;1.80;;;;;;;11.47;100.00;101336.19;4958831;28;20926;-79
2023/09/24 07:26:22;;;;;;;1.87;1.70;;;;;;;11.50;100.00;101333.63;4957177;28;20240;-80
2023/09/24 07:28:48;;;;;;;3.43;1.63;;;;;;;11.76;100.00;101329.38;4965575;28;20198;-81
2023/09/24 07:31:15;;;;;;;1.60;1.33;;;;;;;11.80;100.00;101333.72;4962464;28;20209;-79
2023/09/24 07:33:42;;;;;;;2.07;1.40;;;;;;;12.06;100.00;101336.38;4963101;28;20672;-79
2023/09/24 07:36:08;;;;;;;3.30;1.73;;;;;;;12.00;100.00;101337.25;4968348;28;20217;-82
2023/09/24 07:38:34;;;;;;;2.93;1.90;;;;;;;12.01;100.00;101335.53;4960162;28;20723;-80
2023/09/24 07:40:59;;;;;;;3.47;1.87;;;;;;;12.31;100.00;101341.63;4963578;28;20304;-81
2023/09/24 07:43:25;;;;;;;3.83;2.10;;;;;;;12.16;100.00;101334.69;4961063;28;20186;-81
2023/09/24 07:45:50;;;;;;;2.03;1.60;;;;;;;12.25;100.00;101333.81;4964257;28;20202;-80
2023/09/24 07:48:16;;;;;;;4.07;1.83;;;;;;;12.33;100.00;101338.16;4964683;28;20842;-80
2023/09/24 07:50:50;;;;;;;3.57;2.10;;;;;;;12.38;100.00;101337.31;4961863;28;20842;-79
2023/09/24 07:53:15;;;;;;;2.60;2.00;;;;;;;12.32;100.00;101335.56;4957264;28;20186;-80
2023/09/24 07:55:40;;;;;;;2.40;1.50;;;;;;;12.22;100.00;101339.00;4958834;28;20227;-79
2023/09/24 07:58:06;;;;;;;2.73;1.80;;;;;;;12.22;100.00;101336.41;4960976;28;20227;-79
2023/09/24 08:00:31;;;;;;;2.90;1.77;;;;;;;12.27;100.00;101339.88;4961820;28;20193;-80
2023/09/24 08:02:56;;;;;;;3.30;1.97;;;;;;;12.32;100.00;101345.97;4960269;28;20579;-79
2023/09/24 08:05:22;;;;;;;2.93;1.80;;;;;;;12.38;100.00;101343.34;4962424;28;20890;-80
2023/09/24 08:07:47;;;;;;;2.30;1.73;;;;;;;12.48;100.00;101342.47;4964102;28;20227;-78
2023/09/24 08:10:12;;;;;;;2.30;1.73;;;;;;;12.49;100.00;101338.16;4963650;28;20197;-79
2023/09/24 08:12:39;;;;;;;2.23;1.53;;;;;;;12.43;100.00;101344.22;4959915;28;20232;-79
2023/09/24 08:15:05;;;;;;;2.80;1.50;;;;;;;12.38;100.00;101353.72;4960039;28;20306;-81
2023/09/24 08:17:30;;;;;;;3.73;1.60;;;;;;;12.58;100.00;101339.91;4959646;28;20901;-80
2023/09/24 08:19:56;;;;;;;2.10;1.60;;;;;;;12.61;100.00;101343.34;4963956;28;20203;-78
2023/09/24 08:22:23;;;;;;;2.47;1.60;;;;;;;12.69;100.00;101338.16;4963430;28;20781;-79
2023/09/24 08:24:48;;;;;;;2.93;1.60;;;;;;;12.74;100.00;101338.13;4961257;28;20190;-79
2023/09/24 08:27:13;;;;;;;2.33;1.70;;;;;;;12.73;100.00;101339.00;4956433;28;20606;-78
2023/09/24 08:29:39;;;;;;;1.93;1.60;;;;;;;12.84;100.00;101344.19;4961257;28;20192;-81
2023/09/24 08:32:04;;;;;;;1.97;1.70;;;;;;;12.98;100.00;101345.03;4958883;28;20194;-78
2023/09/24 08:34:30;;;;;;;2.10;1.37;;;;;;;13.08;100.00;101343.28;4962945;28;20199;-81
2023/09/24 08:36:55;;;;;;;2.70;1.50;;;;;;;13.15;100.00;101342.41;4956055;28;20296;-80
2023/09/24 08:39:20;;;;;;;2.43;1.37;;;;;;;13.29;100.00;101344.09;4963013;28;20196;-81
2023/09/24 08:41:46;;;;;;;2.33;1.80;;;;;;;13.44;100.00;101343.19;4960233;28;20190;-80
2023/09/24 08:44:14;;;;;;;3.33;1.83;;;;;;;13.36;100.00;101344.09;4964926;28;21008;-81
2023/09/24 08:46:42;;;;;;;2.13;1.50;;;;;;;13.37;100.00;101347.53;4976676;28;20212;-79
2023/09/24 08:49:07;;;;;;;2.10;1.60;;;;;;;13.53;100.00;101353.59;4967066;28;20188;-79
2023/09/24 08:51:33;;;;;;;1.57;1.20;;;;;;;13.69;100.00;101349.16;4982896;28;20268;-80
2023/09/24 08:54:00;;;;;;;3.50;1.73;;;;;;;13.59;100.00;101348.34;4985158;28;20546;-78
2023/09/24 08:56:26;;;;;;;1.67;1.20;;;;;;;13.81;100.00;101341.28;4961500;28;20745;-79
2023/09/24 08:58:53;;;;;;;2.27;1.40;;;;;;;13.96;100.00;101342.97;4969125;28;20185;-81
2023/09/24 09:01:18;;;;;;;3.00;1.70;;;;;;;13.98;100.00;101346.41;4965249;28;20253;-80
2023/09/24 09:03:43;;;;;;;4.33;1.77;;;;;;;14.16;100.00;101339.34;4959747;28;20197;-79
2023/09/24 09:06:09;;;;;;;3.40;2.10;;;;;;;14.26;100.00;101340.16;4957773;28;20241;-80
2023/09/24 09:08:51;;;;;;;2.60;1.83;;;;;;;14.46;100.00;101332.16;4964983;28;20933;-79
2023/09/24 09:11:19;;;;;;;1.50;1.40;;;;;;;14.56;100.00;101336.44;4963639;28;20540;-81
2023/09/24 09:13:49;;;;;;;1.80;1.43;;;;;;;14.61;100.00;101341.59;4963683;28;20199;-81
2023/09/24 09:16:16;;;;;;;2.70;1.73;;;;;;;14.71;100.00;101335.47;4963173;28;20205;-79
2023/09/24 09:18:42;;;;;;;2.23;1.43;;;;;;;14.76;100.00;101330.19;4962670;28;20619;-79
2023/09/24 09:21:07;;;;;;;2.17;1.73;;;;;;;14.77;100.00;101329.31;4959325;28;20267;-81
2023/09/24 09:23:37;;;;;;;2.83;1.73;;;;;;;14.87;100.00;101322.28;4963988;28;20231;-81
2023/09/24 09:26:02;;;;;;;3.47;1.80;;;;;;;14.76;100.00;101319.78;4964894;28;20265;-81
2023/09/24 09:28:30;;;;;;;3.43;1.90;;;;;;;14.82;100.00;101322.34;4963010;28;20579;-79
2023/09/24 09:30:59;;;;;;;3.83;1.90;;;;;;;14.96;100.00;101311.78;4963205;28;20190;-80
2023/09/24 09:33:27;;;;;;;2.07;1.67;;;;;;;15.02;100.00;101306.47;4963100;28;20192;-81
2023/09/24 09:35:52;;;;;;;3.47;1.77;;;;;;;14.96;100.00;101309.16;4961046;28;20361;-81
2023/09/24 09:38:18;;;;;;;2.87;1.70;;;;;;;14.96;100.00;101297.88;4961452;28;20738;-78
2023/09/24 09:40:43;;;;;;;4.63;2.13;;;;;;;15.19;100.00;101300.22;4958902;28;20850;-79
2023/09/24 09:43:12;;;;;;;2.50;1.43;;;;;;;15.42;100.00;101301.69;4960537;28;20194;-79
2023/09/24 09:45:38;;;;;;;3.10;2.07;;;;;;;15.67;100.00;101294.38;4960561;28;20366;-79
2023/09/24 09:48:04;;;;;;;2.40;2.20;;;;;;;15.70;100.00;101290.00;4962867;28;20399;-79
2023/09/24 09:50:38;;;;;;;2.37;1.70;;;;;;;15.68;100.00;101278.69;4962035;28;20198;-80
2023/09/24 09:53:09;;;;;;;3.83;3.13;;;;;;;15.79;100.00;101275.06;4961016;28;20838;-79
2023/09/24 09:55:42;;;;;;;3.13;2.00;;;;;;;15.83;100.00;101284.59;4958776;28;20217;-79
2023/09/24 09:58:07;;;;;;;3.00;1.60;;;;;;;15.84;100.00;101279.31;4963569;28;20584;-78
2023/09/24 10:00:33;;;;;;;4.00;1.70;;;;;;;15.79;99.97;101281.16;4960709;28;20201;-78
2023/09/24 10:03:00;;;;;;;2.47;1.73;;;;;;;16.11;98.92;101271.97;4959951;28;20202;-78
2023/09/24 10:05:27;;;;;;;2.13;1.47;;;;;;;16.08;95.30;101269.44;4960916;28;20195;-81
2023/09/24 10:07:53;;;;;;;2.07;1.60;;;;;;;15.96;93.18;101280.06;4960782;28;20202;-79
2023/09/24 10:10:31;;;;;;;1.97;1.63;;;;;;;16.10;93.12;101267.66;4960227;28;20189;-78
2023/09/24 10:12:56;;;;;;;1.73;1.53;;;;;;;16.17;94.09;101280.59;4957641;28;20528;-78
2023/09/24 10:15:28;;;;;;;2.10;1.33;;;;;;;16.12;92.17;101278.06;4961422;28;20283;-79
2023/09/24 10:18:08;;;;;;;2.97;1.97;;;;;;;16.09;88.97;101275.50;4960343;28;20220;-78
2023/09/24 10:20:49;;;;;;;2.80;1.70;;;;;;;16.02;87.21;101268.69;4974606;28;20280;-78
2023/09/24 10:23:30;;;;;;;3.17;1.77;;;;;;;16.19;87.59;101271.84;4958829;28;20745;-78
2023/09/24 10:25:59;;;;;;;2.43;1.60;;;;;;;16.37;87.76;101270.69;4959785;28;20198;-78
2023/09/24 10:28:48;;;;;;;4.90;1.90;;;;;;;16.39;89.12;101268.03;4962283;28;20232;-78
2023/09/24 10:31:14;;;;;;;2.47;1.70;;;;;;;16.43;88.40;101262.72;4962028;28;20206;-78
2023/09/24 10:33:57;;;;;;;3.43;2.30;;;;;;;16.66;85.42;101266.69;4960964;28;20187;-79
2023/09/24 10:36:31;;;;;;;2.87;1.67;;;;;;;16.44;82.86;101256.63;4961405;28;20600;-79
2023/09/24 10:39:22;;;;;;;3.47;2.00;;;;;;;16.53;83.17;101250.38;4962013;28;20234;-79
2023/09/24 10:42:09;;;;;;;2.50;1.60;;;;;;;16.81;83.95;101242.00;4960179;28;20283;-79
2023/09/24 10:44:36;;;;;;;2.20;2.00;;;;;;;16.97;83.54;101249.56;4962408;28;20189;-81
2023/09/24 10:47:23;;;;;;;3.77;2.43;;;;;;;16.89;81.03;101247.94;4980504;28;20203;-80
2023/09/24 10:49:49;;;;;;;4.60;2.60;;;;;;;16.90;83.33;101241.84;4967089;28;20190;-79
2023/09/24 10:52:15;;;;;;;7.50;6.80;;;;;;;17.10;81.61;101237.97;4955037;28;20244;-80
2023/09/24 10:54:41;;;;;;;3.20;1.67;;;;;;;17.01;82.02;101241.66;4956244;28;20185;-78
2023/09/24 10:57:07;;;;;;;3.47;2.47;;;;;;;17.15;83.76;101230.03;4954285;28;20226;-80
2023/09/24 10:59:33;;;;;;;2.33;1.60;;;;;;;17.32;81.71;101227.88;4952779;28;20710;-80
2023/09/24 11:02:14;;;;;;;2.83;1.60;;;;;;;17.14;81.97;101228.31;4954272;28;20199;-78
2023/09/24 11:04:39;;;;;;;1.97;1.40;;;;;;;17.14;80.10;101238.78;4960120;28;20196;-79
2023/09/24 11:07:12;;;;;;;3.90;2.10;;;;;;;17.09;79.40;101235.38;4956033;28;20329;-78
2023/09/24 11:09:37;;;;;;;2.83;1.80;;;;;;;17.13;79.40;101227.44;4958660;28;20196;-79
2023/09/24 11:12:09;;;;;;;4.53;2.10;;;;;;;17.23;79.53;101214.19;4973625;28;20560;-78
2023/09/24 11:14:35;;;;;;;3.57;1.80;;;;;;;17.35;78.97;101219.13;4952508;28;20219;-76
2023/09/24 11:17:01;;;;;;;3.60;1.57;;;;;;;17.34;80.09;101212.19;4957658;28;20233;-78
2023/09/24 11:19:46;;;;;;;2.57;1.80;;;;;;;17.50;81.35;101210.06;4956215;28;20185;-78
2023/09/24 11:22:22;;;;;;;2.40;1.63;;;;;;;17.55;81.06;101202.97;4973686;28;20197;-80